sensor_id;sensor_type;location;lat;lon;timestamp;pressure;altitude;pressure_sealevel;temperature;humidity
53011;BME280;42803;55.762;38.084;2023-03-22T00:00:14;98945.81;;;3.88;100.00
53011;BME280;42803;55.762;38.084;2023-03-22T00:02:46;98950.19;;;3.89;100.00
53011;BME280;42803;55.762;38.084;2023-03-22T00:05:15;98949.16;;;3.87;100.00
53011;BME280;42803;55.762;38.084;2023-03-22T00:07:44;98937.28;;;3.89;100.00
53011;BME280;42803;55.762;38.084;2023-03-22T00:10:18;98945.03;;;3.89;100.00
53011;BME280;42803;55.762;38.084;2023-03-22T00:12:47;98949.16;;;3.87;100.00
53011;BME280;42803;55.762;38.084;2023-03-22T00:15:16;98945.25;;;3.82;100.00
53011;BME280;42803;55.762;38.084;2023-03-22T00:17:45;98948.59;;;3.81;100.00
53011;BME280;42803;55.762;38.084;2023-03-22T00:20:14;98962.56;;;3.83;100.00
53011;BME280;42803;55.762;38.084;2023-03-22T00:22:47;98948.59;;;3.81;100.00
53011;BME280;42803;55.762;38.084;2023-03-22T00:25:17;98942.88;;;3.75;100.00
53011;BME280;42803;55.762;38.084;2023-03-22T00:27:46;98944.81;;;3.77;100.00
53011;BME280;42803;55.762;38.084;2023-03-22T00:30:16;98952.88;;;3.72;100.00
53011;BME280;42803;55.762;38.084;2023-03-22T00:32:45;98955.19;;;3.69;100.00
53011;BME280;42803;55.762;38.084;2023-03-22T00:35:14;98953.78;;;3.72;100.00
53011;BME280;42803;55.762;38.084;2023-03-22T00:37:43;98954.22;;;3.77;100.00
53011;BME280;42803;55.762;38.084;2023-03-22T00:40:13;98957.88;;;3.79;100.00
53011;BME280;42803;55.762;38.084;2023-03-22T00:42:46;98970.00;;;3.80;100.00
53011;BME280;42803;55.762;38.084;2023-03-22T00:45:15;98967.41;;;3.80;100.00
53011;BME280;42803;55.762;38.084;2023-03-22T00:47:44;98981.09;;;3.79;100.00
53011;BME280;42803;55.762;38.084;2023-03-22T00:50:13;98981.88;;;3.78;100.00
53011;BME280;42803;55.762;38.084;2023-03-22T00:52:42;98982.91;;;3.80;100.00
53011;BME280;42803;55.762;38.084;2023-03-22T00:55:11;98988.53;;;3.76;100.00
53011;BME280;42803;55.762;38.084;2023-03-22T00:57:40;98985.66;;;3.73;100.00
53011;BME280;42803;55.762;38.084;2023-03-22T01:00:12;98986.56;;;3.73;100.00
53011;BME280;42803;55.762;38.084;2023-03-22T01:02:44;98988.41;;;3.74;100.00
53011;BME280;42803;55.762;38.084;2023-03-22T01:05:18;98991.59;;;3.72;100.00
53011;BME280;42803;55.762;38.084;2023-03-22T01:07:48;98996.16;;;3.74;100.00
53011;BME280;42803;55.762;38.084;2023-03-22T01:10:18;98998.09;;;3.77;100.00
53011;BME280;42803;55.762;38.084;2023-03-22T01:12:47;99006.31;;;3.73;100.00
53011;BME280;42803;55.762;38.084;2023-03-22T01:15:18;99002.69;;;3.71;100.00
53011;BME280;42803;55.762;38.084;2023-03-22T01:17:47;99011.47;;;3.73;100.00
53011;BME280;42803;55.762;38.084;2023-03-22T01:20:17;99001.63;;;3.69;100.00
53011;BME280;42803;55.762;38.084;2023-03-22T01:22:46;98999.53;;;3.64;100.00
53011;BME280;42803;55.762;38.084;2023-03-22T01:25:15;99008.78;;;3.62;100.00
53011;BME280;42803;55.762;38.084;2023-03-22T01:27:44;99010.31;;;3.60;100.00
53011;BME280;42803;55.762;38.084;2023-03-22T01:30:13;99016.09;;;3.58;100.00
53011;BME280;42803;55.762;38.084;2023-03-22T01:32:44;99014.59;;;3.51;100.00
53011;BME280;42803;55.762;38.084;2023-03-22T01:35:13;99024.47;;;3.47;100.00
53011;BME280;42803;55.762;38.084;2023-03-22T01:37:42;99022.22;;;3.41;100.00
53011;BME280;42803;55.762;38.084;2023-03-22T01:40:13;99038.75;;;3.34;100.00
53011;BME280;42803;55.762;38.084;2023-03-22T01:42:43;99046.81;;;3.29;100.00
53011;BME280;42803;55.762;38.084;2023-03-22T01:45:32;99048.31;;;3.27;100.00
53011;BME280;42803;55.762;38.084;2023-03-22T01:51:03;99051.97;;;3.20;100.00
53011;BME280;42803;55.762;38.084;2023-03-22T01:53:42;99059.25;;;3.15;100.00
53011;BME280;42803;55.762;38.084;2023-03-22T01:56:13;99068.97;;;3.18;100.00
53011;BME280;42803;55.762;38.084;2023-03-22T01:58:42;99068.22;;;3.19;100.00
53011;BME280;42803;55.762;38.084;2023-03-22T02:01:15;99069.75;;;3.17;100.00
53011;BME280;42803;55.762;38.084;2023-03-22T02:03:51;99063.38;;;3.13;100.00
53011;BME280;42803;55.762;38.084;2023-03-22T02:06:23;99066.41;;;3.09;100.00
53011;BME280;42803;55.762;38.084;2023-03-22T02:08:59;99069.72;;;3.08;100.00
53011;BME280;42803;55.762;38.084;2023-03-22T02:11:32;99064.44;;;3.07;100.00
53011;BME280;42803;55.762;38.084;2023-03-22T02:17:29;99065.78;;;3.03;100.00
53011;BME280;42803;55.762;38.084;2023-03-22T02:20:43;99078.22;;;3.07;100.00
53011;BME280;42803;55.762;38.084;2023-03-22T02:29:31;99086.28;;;3.02;100.00
53011;BME280;42803;55.762;38.084;2023-03-22T02:32:24;99085.66;;;2.96;100.00
53011;BME280;42803;55.762;38.084;2023-03-22T02:35:19;99086.88;;;2.90;100.00
53011;BME280;42803;55.762;38.084;2023-03-22T02:38:14;99092.31;;;2.85;100.00
53011;BME280;42803;55.762;38.084;2023-03-22T02:40:49;99095.34;;;2.81;100.00
53011;BME280;42803;55.762;38.084;2023-03-22T02:43:28;99098.25;;;2.75;100.00
53011;BME280;42803;55.762;38.084;2023-03-22T02:46:09;99098.69;;;2.80;100.00
53011;BME280;42803;55.762;38.084;2023-03-22T02:48:44;99100.81;;;2.84;100.00
53011;BME280;42803;55.762;38.084;2023-03-22T02:51:21;99108.09;;;2.88;100.00
53011;BME280;42803;55.762;38.084;2023-03-22T02:53:54;99103.97;;;2.90;100.00
53011;BME280;42803;55.762;38.084;2023-03-22T02:56:29;99106.88;;;2.93;100.00
53011;BME280;42803;55.762;38.084;2023-03-22T02:59:00;99111.56;;;2.97;100.00
53011;BME280;42803;55.762;38.084;2023-03-22T03:01:33;99110.84;;;2.98;100.00
53011;BME280;42803;55.762;38.084;2023-03-22T03:04:08;99110.53;;;2.95;100.00
53011;BME280;42803;55.762;38.084;2023-03-22T03:06:42;99113.88;;;2.94;100.00
53011;BME280;42803;55.762;38.084;2023-03-22T03:09:15;99124.31;;;2.96;100.00
53011;BME280;42803;55.762;38.084;2023-03-22T03:11:51;99127.03;;;2.97;100.00
53011;BME280;42803;55.762;38.084;2023-03-22T03:14:22;99127.94;;;2.98;100.00
53011;BME280;42803;55.762;38.084;2023-03-22T03:17:05;99127.66;;;2.95;100.00
53011;BME280;42803;55.762;38.084;2023-03-22T03:19:43;99127.50;;;2.93;100.00
53011;BME280;42803;55.762;38.084;2023-03-22T03:22:34;99132.97;;;2.96;100.00
53011;BME280;42803;55.762;38.084;2023-03-22T03:25:08;99131.16;;;2.95;100.00
53011;BME280;42803;55.762;38.084;2023-03-22T03:27:45;99132.97;;;2.96;100.00
53011;BME280;42803;55.762;38.084;2023-03-22T03:30:20;99141.47;;;2.95;100.00
53011;BME280;42803;55.762;38.084;2023-03-22T03:32:57;99136.31;;;2.95;100.00
53011;BME280;42803;55.762;38.084;2023-03-22T03:35:30;99139.03;;;2.97;100.00
53011;BME280;42803;55.762;38.084;2023-03-22T03:38:07;99142.06;;;2.92;100.00
53011;BME280;42803;55.762;38.084;2023-03-22T03:40:39;99149.19;;;2.95;100.00
53011;BME280;42803;55.762;38.084;2023-03-22T03:43:11;99149.19;;;2.95;100.00
53011;BME280;42803;55.762;38.084;2023-03-22T03:45:41;99149.03;;;2.93;100.00
53011;BME280;42803;55.762;38.084;2023-03-22T03:48:16;99160.56;;;2.97;100.00
53011;BME280;42803;55.762;38.084;2023-03-22T03:50:50;99155.56;;;2.99;100.00
53011;BME280;42803;55.762;38.084;2023-03-22T03:53:21;99167.56;;;2.98;100.00
53011;BME280;42803;55.762;38.084;2023-03-22T03:55:50;99169.38;;;2.99;100.00
53011;BME280;42803;55.762;38.084;2023-03-22T03:58:20;99167.56;;;2.98;100.00
53011;BME280;42803;55.762;38.084;2023-03-22T04:00:50;99172.41;;;2.95;100.00
53011;BME280;42803;55.762;38.084;2023-03-22T04:03:37;99184.22;;;2.93;100.00
53011;BME280;42803;55.762;38.084;2023-03-22T04:06:07;99179.06;;;2.93;100.00
53011;BME280;42803;55.762;38.084;2023-03-22T04:08:40;99176.47;;;2.93;100.00
53011;BME280;42803;55.762;38.084;2023-03-22T04:11:15;99182.41;;;2.92;100.00
53011;BME280;42803;55.762;38.084;2023-03-22T04:13:49;99184.53;;;2.96;100.00
53011;BME280;42803;55.762;38.084;2023-03-22T04:16:21;99185.44;;;2.97;100.00
53011;BME280;42803;55.762;38.084;2023-03-22T04:18:52;99187.88;;;2.95;100.00
53011;BME280;42803;55.762;38.084;2023-03-22T04:21:21;99194.72;;;3.03;100.00
53011;BME280;42803;55.762;38.084;2023-03-22T04:23:59;99207.59;;;3.03;100.00
53011;BME280;42803;55.762;38.084;2023-03-22T04:26:33;99214.81;;;2.90;100.00
53011;BME280;42803;55.762;38.084;2023-03-22T04:29:13;99218.00;;;2.79;100.00
53011;BME280;42803;55.762;38.084;2023-03-22T04:31:47;99219.63;;;2.69;100.00
53011;BME280;42803;55.762;38.084;2023-03-22T04:34:21;99227.78;;;2.65;100.00
53011;BME280;42803;55.762;38.084;2023-03-22T04:36:59;99228.34;;;2.54;100.00
53011;BME280;42803;55.762;38.084;2023-03-22T04:39:31;99232.56;;;2.45;100.00
53011;BME280;42803;55.762;38.084;2023-03-22T04:42:26;99230.34;;;2.32;100.00
53011;BME280;42803;55.762;38.084;2023-03-22T04:45:09;99245.44;;;2.20;100.00
53011;BME280;42803;55.762;38.084;2023-03-22T04:47:40;99256.28;;;2.09;100.00
53011;BME280;42803;55.762;38.084;2023-03-22T04:50:11;99255.66;;;2.03;100.00
53011;BME280;42803;55.762;38.084;2023-03-22T04:52:50;99263.28;;;1.94;100.00
53011;BME280;42803;55.762;38.084;2023-03-22T04:55:19;99264.31;;;1.88;100.00
53011;BME280;42803;55.762;38.084;2023-03-22T04:57:48;99272.53;;;1.92;100.00
53011;BME280;42803;55.762;38.084;2023-03-22T05:00:19;99270.38;;;1.88;100.00
53011;BME280;42803;55.762;38.084;2023-03-22T05:02:50;99268.56;;;1.87;100.00
53011;BME280;42803;55.762;38.084;2023-03-22T05:05:35;99271.94;;;1.95;100.00
53011;BME280;42803;55.762;38.084;2023-03-22T05:08:04;99275.47;;;2.04;100.00
53011;BME280;42803;55.762;38.084;2023-03-22T05:10:38;99277.97;;;2.11;100.00
53011;BME280;42803;55.762;38.084;2023-03-22T05:13:08;99258.59;;;2.15;100.00
53011;BME280;42803;55.762;38.084;2023-03-22T05:15:44;99279.66;;;2.19;100.00
53011;BME280;42803;55.762;38.084;2023-03-22T05:18:16;99268.50;;;2.28;100.00
53011;BME280;42803;55.762;38.084;2023-03-22T05:20:47;99281.13;;;2.33;100.00
53011;BME280;42803;55.762;38.084;2023-03-22T05:23:21;99285.25;;;2.40;100.00
53011;BME280;42803;55.762;38.084;2023-03-22T05:25:54;99282.09;;;2.42;100.00
53011;BME280;42803;55.762;38.084;2023-03-22T05:28:26;99285.34;;;2.57;100.00
53011;BME280;42803;55.762;38.084;2023-03-22T05:31:20;99290.72;;;2.67;100.00
53011;BME280;42803;55.762;38.084;2023-03-22T05:33:57;99287.88;;;2.82;100.00
53011;BME280;42803;55.762;38.084;2023-03-22T05:36:28;99292.66;;;2.95;100.00
53011;BME280;42803;55.762;38.084;2023-03-22T05:39:20;99299.03;;;2.98;100.00
53011;BME280;42803;55.762;38.084;2023-03-22T05:41:50;99301.19;;;3.02;100.00
53011;BME280;42803;55.762;38.084;2023-03-22T05:44:19;99300.69;;;2.98;100.00
53011;BME280;42803;55.762;38.084;2023-03-22T05:46:59;99302.78;;;2.93;100.00
53011;BME280;42803;55.762;38.084;2023-03-22T05:49:33;99328.31;;;2.99;100.00
53011;BME280;42803;55.762;38.084;2023-03-22T05:52:03;99325.38;;;2.87;100.00
53011;BME280;42803;55.762;38.084;2023-03-22T05:55:06;99338.91;;;2.68;100.00
53011;BME280;42803;55.762;38.084;2023-03-22T05:57:36;99330.81;;;2.57;100.00
53011;BME280;42803;55.762;38.084;2023-03-22T06:00:09;99331.34;;;2.46;100.00
53011;BME280;42803;55.762;38.084;2023-03-22T06:02:47;99336.19;;;2.42;100.00
53011;BME280;42803;55.762;38.084;2023-03-22T06:05:18;99346.16;;;2.39;100.00
53011;BME280;42803;55.762;38.084;2023-03-22T06:07:49;99358.03;;;2.46;100.00
53011;BME280;42803;55.762;38.084;2023-03-22T06:10:20;99346.44;;;2.34;100.00
53011;BME280;42803;55.762;38.084;2023-03-22T06:12:51;99355.50;;;2.30;100.00
53011;BME280;42803;55.762;38.084;2023-03-22T06:15:26;99351.91;;;2.37;100.00
53011;BME280;42803;55.762;38.084;2023-03-22T06:17:57;99355.44;;;2.46;100.00
53011;BME280;42803;55.762;38.084;2023-03-22T06:20:31;99354.06;;;2.65;100.00
53011;BME280;42803;55.762;38.084;2023-03-22T06:23:06;99347.59;;;2.78;100.00
53011;BME280;42803;55.762;38.084;2023-03-22T06:25:36;99342.50;;;2.86;100.00
53011;BME280;42803;55.762;38.084;2023-03-22T06:28:07;99352.94;;;2.79;100.00
53011;BME280;42803;55.762;38.084;2023-03-22T06:30:38;99361.53;;;2.71;100.00
53011;BME280;42803;55.762;38.084;2023-03-22T06:33:28;99353.38;;;2.75;100.00
53011;BME280;42803;55.762;38.084;2023-03-22T06:36:05;99348.63;;;3.04;100.00
53011;BME280;42803;55.762;38.084;2023-03-22T06:38:42;99353.47;;;3.01;100.00
53011;BME280;42803;55.762;38.084;2023-03-22T06:41:11;99354.78;;;2.89;100.00
53011;BME280;42803;55.762;38.084;2023-03-22T06:43:41;99351.41;;;3.14;100.00
53011;BME280;42803;55.762;38.084;2023-03-22T06:46:27;99351.88;;;3.10;100.00
53011;BME280;42803;55.762;38.084;2023-03-22T06:49:07;99358.81;;;3.36;100.00
53011;BME280;42803;55.762;38.084;2023-03-22T06:51:37;99354.41;;;3.44;99.34
53011;BME280;42803;55.762;38.084;2023-03-22T06:54:07;99356.22;;;3.36;98.38
53011;BME280;42803;55.762;38.084;2023-03-22T06:56:36;99363.00;;;3.27;99.16
53011;BME280;42803;55.762;38.084;2023-03-22T06:59:06;99358.25;;;3.56;98.50
53011;BME280;42803;55.762;38.084;2023-03-22T07:01:35;99361.06;;;4.09;96.59
53011;BME280;42803;55.762;38.084;2023-03-22T07:04:04;99356.19;;;4.47;94.19
53011;BME280;42803;55.762;38.084;2023-03-22T07:06:35;99366.16;;;4.70;92.39
53011;BME280;42803;55.762;38.084;2023-03-22T07:09:05;99360.63;;;4.93;91.28
53011;BME280;42803;55.762;38.084;2023-03-22T07:11:36;99362.28;;;5.01;89.70
53011;BME280;42803;55.762;38.084;2023-03-22T07:14:06;99366.31;;;4.72;89.85
53011;BME280;42803;55.762;38.084;2023-03-22T07:16:57;99369.97;;;4.74;90.55
53011;BME280;42803;55.762;38.084;2023-03-22T07:19:28;99371.00;;;4.76;90.06
53011;BME280;42803;55.762;38.084;2023-03-22T07:22:02;99382.16;;;4.23;90.54
53011;BME280;42803;55.762;38.084;2023-03-22T07:24:32;99385.03;;;3.91;91.80
53011;BME280;42803;55.762;38.084;2023-03-22T07:27:11;99389.53;;;3.67;93.48
53011;BME280;42803;55.762;38.084;2023-03-22T07:29:42;99390.09;;;3.48;94.33
53011;BME280;42803;55.762;38.084;2023-03-22T07:32:11;99399.75;;;3.33;95.34
53011;BME280;42803;55.762;38.084;2023-03-22T07:34:58;99409.09;;;3.24;95.85
53011;BME280;42803;55.762;38.084;2023-03-22T07:37:31;99413.00;;;3.11;96.63
53011;BME280;42803;55.762;38.084;2023-03-22T07:40:04;99401.09;;;3.29;96.79
53011;BME280;42803;55.762;38.084;2023-03-22T07:42:36;99407.97;;;3.46;95.97
53011;BME280;42803;55.762;38.084;2023-03-22T07:45:28;99407.31;;;3.73;94.85
53011;BME280;42803;55.762;38.084;2023-03-22T07:48:19;99403.13;;;4.26;93.86
53011;BME280;42803;55.762;38.084;2023-03-22T07:51:17;99398.97;;;4.97;89.85
53011;BME280;42803;55.762;38.084;2023-03-22T07:53:48;99401.34;;;5.13;87.30
53011;BME280;42803;55.762;38.084;2023-03-22T07:56:17;99396.25;;;5.32;86.24
53011;BME280;42803;55.762;38.084;2023-03-22T07:58:46;99396.38;;;5.42;84.42
53011;BME280;42803;55.762;38.084;2023-03-22T08:01:16;99391.38;;;5.90;83.28
53011;BME280;42803;55.762;38.084;2023-03-22T08:03:59;99387.41;;;6.21;81.68
53011;BME280;42803;55.762;38.084;2023-03-22T08:06:46;99391.97;;;6.24;79.31
53011;BME280;42803;55.762;38.084;2023-03-22T08:09:17;99390.75;;;6.01;78.67
53011;BME280;42803;55.762;38.084;2023-03-22T08:11:48;99397.56;;;6.47;78.32
53011;BME280;42803;55.762;38.084;2023-03-22T08:14:17;99394.63;;;6.34;77.03
53011;BME280;42803;55.762;38.084;2023-03-22T08:17:01;99394.47;;;6.14;79.11
53011;BME280;42803;55.762;38.084;2023-03-22T08:19:30;99397.13;;;5.77;81.58
53011;BME280;42803;55.762;38.084;2023-03-22T08:22:03;99406.50;;;5.22;82.19
53011;BME280;42803;55.762;38.084;2023-03-22T08:25:11;99416.66;;;4.67;83.44
53011;BME280;42803;55.762;38.084;2023-03-22T08:27:41;99413.75;;;4.46;84.15
53011;BME280;42803;55.762;38.084;2023-03-22T08:30:11;99419.56;;;4.52;84.60
53011;BME280;42803;55.762;38.084;2023-03-22T08:32:42;99421.38;;;4.71;82.80
53011;BME280;42803;55.762;38.084;2023-03-22T08:35:11;99415.28;;;4.79;82.81
53011;BME280;42803;55.762;38.084;2023-03-22T08:37:41;99409.88;;;5.03;82.20
53011;BME280;42803;55.762;38.084;2023-03-22T08:40:12;99420.25;;;5.12;80.21
53011;BME280;42803;55.762;38.084;2023-03-22T08:42:47;99413.63;;;5.60;79.86
53011;BME280;42803;55.762;38.084;2023-03-22T08:45:17;99416.00;;;6.31;77.18
53011;BME280;42803;55.762;38.084;2023-03-22T08:47:53;99412.34;;;6.29;75.74
53011;BME280;42803;55.762;38.084;2023-03-22T08:50:25;99405.22;;;6.75;74.79
53011;BME280;42803;55.762;38.084;2023-03-22T08:53:08;99403.66;;;6.48;73.67
53011;BME280;42803;55.762;38.084;2023-03-22T08:55:39;99396.63;;;6.66;73.83
53011;BME280;42803;55.762;38.084;2023-03-22T08:58:12;99389.28;;;6.51;74.79
53011;BME280;42803;55.762;38.084;2023-03-22T09:01:10;99395.13;;;6.78;73.41
53011;BME280;42803;55.762;38.084;2023-03-22T09:03:45;99385.84;;;6.90;72.48
53011;BME280;42803;55.762;38.084;2023-03-22T09:06:14;99395.03;;;6.76;72.52
53011;BME280;42803;55.762;38.084;2023-03-22T09:08:43;99395.31;;;6.90;72.33
53011;BME280;42803;55.762;38.084;2023-03-22T09:11:17;99394.41;;;6.89;73.22
53011;BME280;42803;55.762;38.084;2023-03-22T09:13:48;99387.03;;;6.94;70.98
53011;BME280;42803;55.762;38.084;2023-03-22T09:16:18;99384.94;;;6.90;71.02
53011;BME280;42803;55.762;38.084;2023-03-22T09:18:47;99387.53;;;7.19;70.75
53011;BME280;42803;55.762;38.084;2023-03-22T09:21:20;99387.03;;;6.94;71.15
53011;BME280;42803;55.762;38.084;2023-03-22T09:23:53;99405.50;;;6.78;71.30
53011;BME280;42803;55.762;38.084;2023-03-22T09:26:37;99408.63;;;6.36;71.37
53011;BME280;42803;55.762;38.084;2023-03-22T09:29:06;99404.84;;;6.51;73.63
53011;BME280;42803;55.762;38.084;2023-03-22T09:31:36;99401.81;;;6.84;71.33
53011;BME280;42803;55.762;38.084;2023-03-22T09:34:28;99410.81;;;6.50;71.15
53011;BME280;42803;55.762;38.084;2023-03-22T09:36:58;99410.53;;;6.47;72.22
53011;BME280;42803;55.762;38.084;2023-03-22T09:39:37;99414.47;;;6.33;71.96
53011;BME280;42803;55.762;38.084;2023-03-22T09:42:21;99414.16;;;6.87;71.82
53011;BME280;42803;55.762;38.084;2023-03-22T09:44:54;99403.06;;;7.38;71.77
53011;BME280;42803;55.762;38.084;2023-03-22T09:47:31;99405.34;;;8.15;69.46
53011;BME280;42803;55.762;38.084;2023-03-22T09:50:15;99416.53;;;8.03;65.95
53011;BME280;42803;55.762;38.084;2023-03-22T09:52:47;99415.34;;;8.30;66.12
53011;BME280;42803;55.762;38.084;2023-03-22T09:55:20;99416.13;;;7.89;67.34
53011;BME280;42803;55.762;38.084;2023-03-22T09:57:57;99417.69;;;7.97;66.23
53011;BME280;42803;55.762;38.084;2023-03-22T10:00:37;99415.13;;;8.48;65.87
53011;BME280;42803;55.762;38.084;2023-03-22T10:03:15;99412.31;;;8.77;64.71
53011;BME280;42803;55.762;38.084;2023-03-22T10:05:50;99407.63;;;9.15;63.88
53011;BME280;42803;55.762;38.084;2023-03-22T10:08:32;99403.91;;;9.34;63.64
53011;BME280;42803;55.762;38.084;2023-03-22T10:11:10;99396.19;;;9.67;62.21
53011;BME280;42803;55.762;38.084;2023-03-22T10:13:49;99405.47;;;9.97;62.23
53011;BME280;42803;55.762;38.084;2023-03-22T10:16:26;99404.31;;;10.16;60.25
53011;BME280;42803;55.762;38.084;2023-03-22T10:19:02;99404.38;;;10.28;59.66
53011;BME280;42803;55.762;38.084;2023-03-22T10:21:33;99402.34;;;10.13;59.46
53011;BME280;42803;55.762;38.084;2023-03-22T10:24:07;99405.81;;;9.46;60.44
53011;BME280;42803;55.762;38.084;2023-03-22T10:26:44;99407.34;;;8.90;61.14
53011;BME280;42803;55.762;38.084;2023-03-22T10:29:22;99395.25;;;9.45;60.48
53011;BME280;42803;55.762;38.084;2023-03-22T10:31:53;99415.44;;;8.83;60.52
53011;BME280;42803;55.762;38.084;2023-03-22T10:34:25;99415.47;;;8.73;61.31
53011;BME280;42803;55.762;38.084;2023-03-22T10:36:59;99394.69;;;9.27;61.64
53011;BME280;42803;55.762;38.084;2023-03-22T10:39:31;99408.97;;;9.10;59.20
53011;BME280;42803;55.762;38.084;2023-03-22T10:42:06;99398.31;;;9.39;59.32
53011;BME280;42803;55.762;38.084;2023-03-22T10:44:44;99402.69;;;9.50;59.68
53011;BME280;42803;55.762;38.084;2023-03-22T10:47:17;99396.72;;;9.41;58.53
53011;BME280;42803;55.762;38.084;2023-03-22T10:49:50;99395.22;;;9.55;58.33
53011;BME280;42803;55.762;38.084;2023-03-22T10:52:35;99409.09;;;9.12;58.94
53011;BME280;42803;55.762;38.084;2023-03-22T10:55:10;99408.75;;;8.14;61.45
53011;BME280;42803;55.762;38.084;2023-03-22T10:57:40;99409.75;;;7.75;62.12
53011;BME280;42803;55.762;38.084;2023-03-22T11:00:15;99413.03;;;7.43;63.13
53011;BME280;42803;55.762;38.084;2023-03-22T11:02:47;99411.81;;;7.19;64.37
53011;BME280;42803;55.762;38.084;2023-03-22T11:05:22;99415.81;;;7.16;65.21
53011;BME280;42803;55.762;38.084;2023-03-22T11:07:52;99410.56;;;6.95;66.64
53011;BME280;42803;55.762;38.084;2023-03-22T11:10:25;99415.38;;;6.72;67.26
53011;BME280;42803;55.762;38.084;2023-03-22T11:13:15;99414.09;;;6.77;66.93
53011;BME280;42803;55.762;38.084;2023-03-22T11:15:57;99413.66;;;6.91;66.84
53011;BME280;42803;55.762;38.084;2023-03-22T11:18:29;99412.09;;;7.22;65.94
53011;BME280;42803;55.762;38.084;2023-03-22T11:21:04;99407.69;;;7.31;64.89
53011;BME280;42803;55.762;38.084;2023-03-22T11:23:34;99415.22;;;7.68;64.84
53011;BME280;42803;55.762;38.084;2023-03-22T11:26:08;99408.72;;;8.03;63.69
53011;BME280;42803;55.762;38.084;2023-03-22T11:28:41;99403.31;;;8.41;62.88
53011;BME280;42803;55.762;38.084;2023-03-22T11:31:16;99414.19;;;8.58;62.46
53011;BME280;42803;55.762;38.084;2023-03-22T11:33:54;99413.28;;;8.37;61.63
53011;BME280;42803;55.762;38.084;2023-03-22T11:36:24;99406.44;;;8.47;62.40
53011;BME280;42803;55.762;38.084;2023-03-22T11:38:58;99400.09;;;8.76;62.41
53011;BME280;42803;55.762;38.084;2023-03-22T11:41:29;99396.56;;;8.86;61.57
53011;BME280;42803;55.762;38.084;2023-03-22T11:44:01;99395.59;;;9.06;60.99
53011;BME280;42803;55.762;38.084;2023-03-22T11:46:33;99395.56;;;9.38;60.28
53011;BME280;42803;55.762;38.084;2023-03-22T11:49:06;99392.66;;;9.45;60.35
53011;BME280;42803;55.762;38.084;2023-03-22T11:51:38;99389.81;;;9.20;60.01
53011;BME280;42803;55.762;38.084;2023-03-22T11:54:09;99386.94;;;9.17;61.09
53011;BME280;42803;55.762;38.084;2023-03-22T11:56:44;99394.19;;;9.31;60.10
53011;BME280;42803;55.762;38.084;2023-03-22T11:59:16;99393.88;;;9.06;60.12
53011;BME280;42803;55.762;38.084;2023-03-22T12:01:59;99395.88;;;8.98;60.44
53011;BME280;42803;55.762;38.084;2023-03-22T12:04:33;99397.88;;;8.81;60.14
53011;BME280;42803;55.762;38.084;2023-03-22T12:07:12;99392.22;;;8.54;60.74
53011;BME280;42803;55.762;38.084;2023-03-22T12:09:47;99405.34;;;8.35;61.11
53011;BME280;42803;55.762;38.084;2023-03-22T12:12:23;99388.72;;;8.02;61.89
53011;BME280;42803;55.762;38.084;2023-03-22T12:14:57;99396.25;;;7.79;62.72
53011;BME280;42803;55.762;38.084;2023-03-22T12:17:35;99391.81;;;7.78;63.07
53011;BME280;42803;55.762;38.084;2023-03-22T12:20:15;99385.84;;;7.89;63.56
53011;BME280;42803;55.762;38.084;2023-03-22T12:22:51;99390.00;;;7.97;63.44
53011;BME280;42803;55.762;38.084;2023-03-22T12:25:31;99387.44;;;7.87;63.06
53011;BME280;42803;55.762;38.084;2023-03-22T12:28:02;99395.47;;;7.80;63.13
53011;BME280;42803;55.762;38.084;2023-03-22T12:30:38;99396.00;;;7.76;63.63
53011;BME280;42803;55.762;38.084;2023-03-22T12:33:17;99394.94;;;7.74;63.87
53011;BME280;42803;55.762;38.084;2023-03-22T12:35:50;99387.00;;;7.72;64.59
53011;BME280;42803;55.762;38.084;2023-03-22T12:38:26;99392.53;;;7.46;64.00
53011;BME280;42803;55.762;38.084;2023-03-22T12:41:02;99387.22;;;7.45;64.74
53011;BME280;42803;55.762;38.084;2023-03-22T12:43:39;99389.28;;;7.39;65.41
53011;BME280;42803;55.762;38.084;2023-03-22T12:46:15;99387.19;;;7.35;65.71
53011;BME280;42803;55.762;38.084;2023-03-22T12:48:50;99386.81;;;7.40;66.04
53011;BME280;42803;55.762;38.084;2023-03-22T12:51:21;99389.13;;;7.27;66.00
53011;BME280;42803;55.762;38.084;2023-03-22T12:53:52;99393.75;;;7.21;66.13
53011;BME280;42803;55.762;38.084;2023-03-22T12:56:23;99383.88;;;7.06;66.94
53011;BME280;42803;55.762;38.084;2023-03-22T12:58:58;99387.72;;;7.01;67.29
53011;BME280;42803;55.762;38.084;2023-03-22T13:01:32;99381.13;;;7.05;67.46
53011;BME280;42803;55.762;38.084;2023-03-22T13:04:45;99383.09;;;7.07;68.01
53011;BME280;42803;55.762;38.084;2023-03-22T13:07:31;99378.03;;;7.09;68.46
53011;BME280;42803;55.762;38.084;2023-03-22T13:10:47;99368.97;;;7.24;68.82
53011;BME280;42803;55.762;38.084;2023-03-22T13:13:42;99367.59;;;7.38;68.99
53011;BME280;42803;55.762;38.084;2023-03-22T13:16:17;99377.72;;;7.35;68.92
53011;BME280;42803;55.762;38.084;2023-03-22T13:19:00;99378.53;;;7.54;69.23
53011;BME280;42803;55.762;38.084;2023-03-22T13:21:32;99374.13;;;7.53;69.23
53011;BME280;42803;55.762;38.084;2023-03-22T13:24:21;99381.94;;;7.64;69.38
53011;BME280;42803;55.762;38.084;2023-03-22T13:26:52;99372.31;;;7.52;69.68
53011;BME280;42803;55.762;38.084;2023-03-22T13:29:23;99376.19;;;7.37;70.13
53011;BME280;42803;55.762;38.084;2023-03-22T13:31:55;99376.38;;;7.20;70.97
53011;BME280;42803;55.762;38.084;2023-03-22T13:34:30;99373.53;;;7.27;71.47
53011;BME280;42803;55.762;38.084;2023-03-22T13:37:02;99380.31;;;7.35;71.53
53011;BME280;42803;55.762;38.084;2023-03-22T13:39:36;99371.97;;;7.19;71.53
53011;BME280;42803;55.762;38.084;2023-03-22T13:42:17;99373.66;;;7.18;72.07
53011;BME280;42803;55.762;38.084;2023-03-22T13:44:52;99372.31;;;7.13;72.21
53011;BME280;42803;55.762;38.084;2023-03-22T13:47:33;99366.22;;;7.02;72.66